createdAt,value
2023-01-25T00:00:43.886Z,1.70
2023-01-25T00:05:50.620Z,1.60
2023-01-25T00:10:58.507Z,1.50
2023-01-25T00:16:07.263Z,1.50
2023-01-25T00:21:22.792Z,1.50
2023-01-25T00:26:31.375Z,1.60
2023-01-25T00:31:57.289Z,1.60
2023-01-25T00:37:23.672Z,1.50
2023-01-25T00:42:30.641Z,1.40
2023-01-25T00:47:37.299Z,1.30
2023-01-25T00:52:44.069Z,1.30
2023-01-25T00:57:50.870Z,1.10
2023-01-25T01:02:58.575Z,1.10
2023-01-25T01:08:06.513Z,1.20
2023-01-25T01:13:13.505Z,1.30
2023-01-25T01:18:20.857Z,1.30
2023-01-25T01:23:27.678Z,1.10
2023-01-25T01:28:38.833Z,1.20
2023-01-25T01:33:45.759Z,1.00
2023-01-25T01:38:52.648Z,1.10
2023-01-25T01:43:59.763Z,1.10
2023-01-25T01:49:25.814Z,1.10
2023-01-25T01:54:39.070Z,1.00
2023-01-25T01:59:55.863Z,1.00
2023-01-25T02:05:07.013Z,1.10
2023-01-25T02:10:15.537Z,1.20
2023-01-25T02:15:22.892Z,1.10
2023-01-25T02:20:52.164Z,1.10
2023-01-25T02:26:04.790Z,1.00
2023-01-25T02:31:11.857Z,0.90
2023-01-25T02:36:28.575Z,1.00
2023-01-25T02:41:41.876Z,1.10
2023-01-25T02:46:48.872Z,1.10
2023-01-25T02:51:59.115Z,1.00
2023-01-25T02:57:05.836Z,1.00
2023-01-25T03:02:12.500Z,1.00
2023-01-25T03:07:19.102Z,1.10
2023-01-25T03:12:25.890Z,1.10
2023-01-25T03:17:32.584Z,0.90
2023-01-25T03:22:39.267Z,1.00
2023-01-25T03:27:45.954Z,1.00
2023-01-25T03:32:53.197Z,1.00
2023-01-25T03:37:59.885Z,1.10
2023-01-25T03:43:06.568Z,1.20
2023-01-25T03:48:13.305Z,1.20
2023-01-25T03:53:33.264Z,1.30
2023-01-25T03:58:41.344Z,1.20
2023-01-25T04:03:48.151Z,1.30
2023-01-25T04:08:54.863Z,1.20
2023-01-25T04:14:01.580Z,1.20
2023-01-25T04:19:08.163Z,1.30
2023-01-25T04:24:14.869Z,1.30
2023-01-25T04:29:28.693Z,1.30
2023-01-25T04:34:29.935Z,1.20
2023-01-25T04:39:36.589Z,1.20
2023-01-25T04:44:43.291Z,1.20
2023-01-25T04:49:49.967Z,1.00
2023-01-25T04:54:56.635Z,1.00
2023-01-25T05:00:04.491Z,1.10
2023-01-25T05:05:11.890Z,1.10
2023-01-25T05:10:18.723Z,1.00
2023-01-25T05:15:25.382Z,0.90
2023-01-25T05:20:32.168Z,0.90
2023-01-25T05:25:56.356Z,0.80
2023-01-25T05:31:07.385Z,0.90
2023-01-25T05:36:14.074Z,0.90
2023-01-25T05:41:20.851Z,0.90
2023-01-25T05:46:29.391Z,0.90
2023-01-25T05:51:36.128Z,1.00
2023-01-25T05:56:42.888Z,0.90
2023-01-25T06:01:49.552Z,1.00
2023-01-25T06:06:56.676Z,0.90
2023-01-25T06:12:04.348Z,0.90
2023-01-25T06:17:11.635Z,0.90
2023-01-25T06:22:18.487Z,0.70
2023-01-25T06:27:25.219Z,0.80
2023-01-25T06:32:36.247Z,0.60
2023-01-25T06:37:42.952Z,0.60
2023-01-25T06:42:49.759Z,0.70
2023-01-25T06:47:56.478Z,0.70
2023-01-25T06:53:03.123Z,0.40
2023-01-25T06:58:09.835Z,0.40
2023-01-25T07:03:16.518Z,0.40
2023-01-25T07:08:24.951Z,0.30
2023-01-25T07:13:34.141Z,0.30
2023-01-25T07:18:40.814Z,0.50
2023-01-25T07:23:47.533Z,0.40
2023-01-25T07:28:55.323Z,0.40
2023-01-25T07:34:02.029Z,0.50
2023-01-25T07:39:10.446Z,0.40
2023-01-25T07:44:17.133Z,0.50
2023-01-25T07:49:23.935Z,0.50
2023-01-25T07:54:30.569Z,0.60
2023-01-25T07:59:37.282Z,0.70
2023-01-25T08:04:44.828Z,0.70
2023-01-25T08:09:51.625Z,0.60
2023-01-25T08:14:58.336Z,0.60
2023-01-25T08:20:06.334Z,0.80
2023-01-25T08:25:13.480Z,0.80
2023-01-25T08:30:20.404Z,0.90
2023-01-25T08:35:27.547Z,1.00
2023-01-25T08:40:36.989Z,1.00
2023-01-25T08:45:42.411Z,1.00
2023-01-25T08:50:49.700Z,0.70
2023-01-25T08:55:56.373Z,0.80
2023-01-25T09:01:09.273Z,0.90
2023-01-25T09:06:16.752Z,1.00
2023-01-25T09:11:24.939Z,1.10
2023-01-25T09:16:32.209Z,1.10
2023-01-25T09:21:38.884Z,1.10
2023-01-25T09:26:55.758Z,0.90
2023-01-25T09:31:54.008Z,0.80
2023-01-25T09:37:00.718Z,0.80
2023-01-25T09:42:33.044Z,0.70
2023-01-25T09:47:59.514Z,0.60
2023-01-25T09:53:35.391Z,0.70
2023-01-25T09:58:46.012Z,0.90
2023-01-25T10:04:17.657Z,0.90
2023-01-25T10:09:45.405Z,0.70
2023-01-25T10:14:53.064Z,0.90
2023-01-25T10:20:25.230Z,0.80
2023-01-25T10:25:39.239Z,0.70
2023-01-25T10:31:20.217Z,0.90
2023-01-25T10:36:31.547Z,0.90
2023-01-25T10:42:02.948Z,1.10
2023-01-25T10:47:29.349Z,1.10
2023-01-25T10:52:39.156Z,1.00
2023-01-25T10:57:51.879Z,1.10
2023-01-25T11:02:58.631Z,1.10
2023-01-25T11:08:38.155Z,1.10
2023-01-25T11:13:45.250Z,1.20
2023-01-25T11:18:55.478Z,1.20
2023-01-25T11:24:12.498Z,1.10
2023-01-25T11:29:24.340Z,1.10
2023-01-25T11:34:32.478Z,1.10
2023-01-25T11:39:52.346Z,1.10
2023-01-25T11:45:18.384Z,1.20
2023-01-25T11:50:39.202Z,1.20
2023-01-25T11:56:11.158Z,1.20
2023-01-25T12:01:41.520Z,1.10
2023-01-25T12:07:10.809Z,1.20
2023-01-25T12:12:42.538Z,1.30
2023-01-25T12:18:30.747Z,1.20
2023-01-25T12:23:50.658Z,1.20
2023-01-25T12:29:07.429Z,1.20
2023-01-25T12:34:37.122Z,1.30
2023-01-25T12:40:05.868Z,1.30
2023-01-25T12:45:22.813Z,1.20
2023-01-25T12:50:46.020Z,1.30
2023-01-25T12:55:53.924Z,1.40
2023-01-25T13:01:24.221Z,1.50
2023-01-25T13:06:53.800Z,1.50
2023-01-25T13:12:01.011Z,1.40
2023-01-25T13:17:34.791Z,1.60
2023-01-25T13:22:55.281Z,1.60
2023-01-25T13:28:22.358Z,1.60
2023-01-25T13:33:37.002Z,1.60
2023-01-25T13:38:43.747Z,1.60
2023-01-25T13:43:54.174Z,1.50
2023-01-25T13:49:04.568Z,1.60
2023-01-25T13:54:15.691Z,1.50
2023-01-25T13:59:29.982Z,1.50
2023-01-25T14:04:36.791Z,1.30
2023-01-25T14:09:45.493Z,1.50
2023-01-25T14:14:52.199Z,1.50
2023-01-25T14:19:58.983Z,1.50
2023-01-25T14:25:25.207Z,1.40
2023-01-25T14:30:34.692Z,1.30
2023-01-25T14:35:54.637Z,1.50
2023-01-25T14:41:11.475Z,1.30
2023-01-25T14:46:30.860Z,1.20
2023-01-25T14:51:58.503Z,1.20
2023-01-25T14:57:08.289Z,1.20
2023-01-25T15:02:22.121Z,1.30
2023-01-25T15:07:50.741Z,1.30
2023-01-25T15:13:16.897Z,1.30
2023-01-25T15:18:51.982Z,1.30
2023-01-25T15:24:05.778Z,1.20
2023-01-25T15:29:21.142Z,1.30
2023-01-25T15:34:33.527Z,1.20
2023-01-25T15:39:40.335Z,1.20
2023-01-25T15:44:46.970Z,1.10
2023-01-25T15:49:54.065Z,1.10
2023-01-25T15:55:02.168Z,1.10
2023-01-25T16:00:18.097Z,1.00
2023-01-25T16:05:25.266Z,1.10
2023-01-25T16:10:33.687Z,1.10
2023-01-25T16:15:43.118Z,1.10
2023-01-25T16:20:50.636Z,1.10
2023-01-25T16:25:58.203Z,1.10
2023-01-25T16:31:05.043Z,1.10
2023-01-25T16:36:21.847Z,1.00
2023-01-25T16:41:28.801Z,1.00
2023-01-25T16:46:36.469Z,1.10
2023-01-25T16:51:44.943Z,1.00
2023-01-25T16:56:54.776Z,1.00
2023-01-25T17:02:01.648Z,1.00
2023-01-25T17:07:10.244Z,1.00
2023-01-25T17:12:17.118Z,0.90
2023-01-25T17:17:24.538Z,1.00
2023-01-25T17:22:33.046Z,1.10
2023-01-25T17:27:39.846Z,1.20
2023-01-25T17:32:46.775Z,1.20
2023-01-25T17:37:56.433Z,1.10
2023-01-25T17:43:03.646Z,1.10
2023-01-25T17:48:11.564Z,0.90
2023-01-25T17:53:18.485Z,0.90
2023-01-25T17:58:25.423Z,0.70
2023-01-25T18:03:34.715Z,0.70
2023-01-25T18:08:43.369Z,0.80
2023-01-25T18:13:57.178Z,0.80
2023-01-25T18:19:03.066Z,0.80
2023-01-25T18:24:36.623Z,0.70
2023-01-25T18:29:59.342Z,0.80
2023-01-25T18:35:06.829Z,0.90
2023-01-25T18:40:15.884Z,0.80
2023-01-25T18:45:24.353Z,0.90
2023-01-25T18:50:31.395Z,0.80
2023-01-25T18:55:39.277Z,0.80
2023-01-25T19:00:45.979Z,0.80
2023-01-25T19:05:56.132Z,0.80
2023-01-25T19:11:09.701Z,0.90
2023-01-25T19:16:20.082Z,0.80
2023-01-25T19:21:28.917Z,0.80
2023-01-25T19:26:36.210Z,0.70
2023-01-25T19:31:43.027Z,0.80
2023-01-25T19:36:54.119Z,0.90
2023-01-25T19:42:00.943Z,0.70
2023-01-25T19:47:07.619Z,0.70
2023-01-25T19:52:14.368Z,0.70
2023-01-25T19:57:21.066Z,0.60
2023-01-25T20:02:28.410Z,0.70
2023-01-25T20:07:35.192Z,0.70
2023-01-25T20:12:41.895Z,0.60
2023-01-25T20:17:48.520Z,0.80
2023-01-25T20:22:56.234Z,0.70
2023-01-25T20:28:03.323Z,0.60
2023-01-25T20:33:10.291Z,0.50
2023-01-25T20:38:17.003Z,0.60
2023-01-25T20:43:23.705Z,0.60
2023-01-25T20:48:36.472Z,0.70
2023-01-25T20:53:44.411Z,0.60
2023-01-25T20:58:53.168Z,0.60
2023-01-25T21:04:00.407Z,0.60
2023-01-25T21:09:07.497Z,0.50
2023-01-25T21:14:14.348Z,0.40
2023-01-25T21:19:20.942Z,0.60
2023-01-25T21:24:27.928Z,0.50
2023-01-25T21:29:35.082Z,0.50
2023-01-25T21:34:42.149Z,0.50
2023-01-25T21:39:49.739Z,0.50
2023-01-25T21:45:13.967Z,0.50
2023-01-25T21:50:37.472Z,0.50
2023-01-25T21:55:43.864Z,0.50
2023-01-25T22:00:50.596Z,0.50
2023-01-25T22:05:57.685Z,0.40
2023-01-25T22:11:07.685Z,0.40
2023-01-25T22:16:15.426Z,0.50
2023-01-25T22:21:30.049Z,0.40
2023-01-25T22:27:02.104Z,0.60
2023-01-25T22:32:08.897Z,0.60
2023-01-25T22:37:15.911Z,0.50
2023-01-25T22:42:22.785Z,0.40
2023-01-25T22:47:29.959Z,0.40
2023-01-25T22:52:37.059Z,0.40
2023-01-25T22:57:43.846Z,0.40
2023-01-25T23:02:50.754Z,0.40
2023-01-25T23:07:57.741Z,0.40
2023-01-25T23:13:04.486Z,0.50
2023-01-25T23:18:29.811Z,0.50
2023-01-25T23:23:37.268Z,0.50
2023-01-25T23:28:46.137Z,0.40
2023-01-25T23:33:56.420Z,0.50
2023-01-25T23:39:04.037Z,0.40
2023-01-25T23:44:11.041Z,0.50
2023-01-25T23:49:18.132Z,0.60
2023-01-25T23:54:26.603Z,0.50
2023-01-25T23:59:35.082Z,0.40
